sensor_id;sensor_type;location;lat;lon;timestamp;pressure;altitude;pressure_sealevel;temperature;humidity
73338;BME280;61575;49.908;35.556;2023-05-08T00:03:05;100180.78;;;7.26;42.82
73338;BME280;61575;49.908;35.556;2023-05-08T00:06:07;100190.00;;;7.22;43.41
73338;BME280;61575;49.908;35.556;2023-05-08T00:09:09;100187.59;;;7.19;43.08
73338;BME280;61575;49.908;35.556;2023-05-08T00:12:12;100184.09;;;7.19;43.23
73338;BME280;61575;49.908;35.556;2023-05-08T00:15:14;100186.75;;;7.19;43.28
73338;BME280;61575;49.908;35.556;2023-05-08T00:18:16;100194.06;;;7.17;42.85
73338;BME280;61575;49.908;35.556;2023-05-08T00:21:18;100188.25;;;7.12;43.35
73338;BME280;61575;49.908;35.556;2023-05-08T00:24:20;100197.25;;;7.11;43.10
73338;BME280;61575;49.908;35.556;2023-05-08T00:27:22;100193.88;;;7.09;43.05
73338;BME280;61575;49.908;35.556;2023-05-08T00:30:24;100204.28;;;7.12;43.30
73338;BME280;61575;49.908;35.556;2023-05-08T00:33:26;100210.41;;;7.02;43.25
73338;BME280;61575;49.908;35.556;2023-05-08T00:36:27;100206.91;;;7.02;43.36
73338;BME280;61575;49.908;35.556;2023-05-08T00:39:29;100209.31;;;7.05;42.97
73338;BME280;61575;49.908;35.556;2023-05-08T00:42:31;100213.34;;;6.99;43.10
73338;BME280;61575;49.908;35.556;2023-05-08T00:45:36;100215.03;;;7.00;43.34
73338;BME280;61575;49.908;35.556;2023-05-08T00:48:38;100220.84;;;7.06;43.29
73338;BME280;61575;49.908;35.556;2023-05-08T00:51:45;100205.59;;;6.96;43.29
73338;BME280;61575;49.908;35.556;2023-05-08T00:54:48;100219.06;;;6.95;43.35
73338;BME280;61575;49.908;35.556;2023-05-08T00:57:50;100217.50;;;6.92;43.17
73338;BME280;61575;49.908;35.556;2023-05-08T01:00:54;100214.72;;;6.94;43.33
73338;BME280;61575;49.908;35.556;2023-05-08T01:03:57;100213.16;;;6.91;43.38
73338;BME280;61575;49.908;35.556;2023-05-08T01:07:00;100215.94;;;6.90;43.36
73338;BME280;61575;49.908;35.556;2023-05-08T01:10:04;100215.81;;;6.91;43.41
73338;BME280;61575;49.908;35.556;2023-05-08T01:31:06;100216.13;;;6.77;43.83
73338;BME280;61575;49.908;35.556;2023-05-08T01:34:31;100224.13;;;6.77;43.94
73338;BME280;61575;49.908;35.556;2023-05-08T01:40:53;100230.56;;;6.75;43.78
73338;BME280;61575;49.908;35.556;2023-05-08T01:44:15;100223.41;;;6.75;43.82
73338;BME280;61575;49.908;35.556;2023-05-08T01:47:19;100233.38;;;6.73;43.69
73338;BME280;61575;49.908;35.556;2023-05-08T01:50:30;100241.38;;;6.73;43.41
73338;BME280;61575;49.908;35.556;2023-05-08T01:53:37;100233.75;;;6.68;43.66
73338;BME280;61575;49.908;35.556;2023-05-08T01:56:43;100237.75;;;6.74;43.77
73338;BME280;61575;49.908;35.556;2023-05-08T01:59:46;100236.19;;;6.72;43.63
73338;BME280;61575;49.908;35.556;2023-05-08T02:02:51;100236.44;;;6.68;43.47
73338;BME280;61575;49.908;35.556;2023-05-08T02:05:55;100241.44;;;6.62;43.76
73338;BME280;61575;49.908;35.556;2023-05-08T02:08:59;100237.91;;;6.61;43.55
73338;BME280;61575;49.908;35.556;2023-05-08T02:12:05;100239.00;;;6.59;43.75
73338;BME280;61575;49.908;35.556;2023-05-08T02:15:11;100237.31;;;6.58;43.83
73338;BME280;61575;49.908;35.556;2023-05-08T02:18:14;100238.16;;;6.58;43.75
73338;BME280;61575;49.908;35.556;2023-05-08T02:21:19;100242.41;;;6.61;43.74
73338;BME280;61575;49.908;35.556;2023-05-08T02:24:23;100244.47;;;6.57;43.35
73338;BME280;61575;49.908;35.556;2023-05-08T02:27:27;100237.69;;;6.53;43.59
73338;BME280;61575;49.908;35.556;2023-05-08T02:30:30;100240.38;;;6.53;43.41
73338;BME280;61575;49.908;35.556;2023-05-08T02:33:32;100241.44;;;6.62;43.17
73338;BME280;61575;49.908;35.556;2023-05-08T02:36:34;100237.56;;;6.55;43.22
73338;BME280;61575;49.908;35.556;2023-05-08T02:39:38;100243.03;;;6.53;43.30
73338;BME280;61575;49.908;35.556;2023-05-08T02:42:42;100235.63;;;6.57;43.33
73338;BME280;61575;49.908;35.556;2023-05-08T02:45:57;100239.28;;;6.56;43.19
73338;BME280;61575;49.908;35.556;2023-05-08T02:49:02;100233.34;;;6.52;43.40
73338;BME280;61575;49.908;35.556;2023-05-08T02:52:12;100228.38;;;6.48;43.27
73338;BME280;61575;49.908;35.556;2023-05-08T02:58:52;100231.97;;;6.58;43.70
73338;BME280;61575;49.908;35.556;2023-05-08T03:02:20;100233.94;;;6.56;43.40
73338;BME280;61575;49.908;35.556;2023-05-08T03:05:25;100228.59;;;6.56;42.66
73338;BME280;61575;49.908;35.556;2023-05-08T03:08:33;100227.88;;;6.54;42.75
73338;BME280;61575;49.908;35.556;2023-05-08T03:11:40;100224.75;;;6.49;43.25
73338;BME280;61575;49.908;35.556;2023-05-08T03:14:59;100222.66;;;6.52;43.75
73338;BME280;61575;49.908;35.556;2023-05-08T03:18:06;100219.16;;;6.52;43.74
73338;BME280;61575;49.908;35.556;2023-05-08T03:21:10;100216.47;;;6.52;43.50
73338;BME280;61575;49.908;35.556;2023-05-08T03:24:14;100216.47;;;6.52;43.90
73338;BME280;61575;49.908;35.556;2023-05-08T03:27:18;100217.72;;;6.48;43.49
73338;BME280;61575;49.908;35.556;2023-05-08T03:30:22;100213.81;;;6.52;43.62
73338;BME280;61575;49.908;35.556;2023-05-08T03:33:36;100215.75;;;6.50;43.42
73338;BME280;61575;49.908;35.556;2023-05-08T03:36:39;100214.41;;;6.55;43.68
73338;BME280;61575;49.908;35.556;2023-05-08T03:39:41;100218.91;;;6.55;43.66
73338;BME280;61575;49.908;35.556;2023-05-08T03:42:44;100223.47;;;6.64;43.17
73338;BME280;61575;49.908;35.556;2023-05-08T03:45:46;100219.09;;;6.63;43.47
73338;BME280;61575;49.908;35.556;2023-05-08T03:48:49;100225.75;;;6.68;43.72
73338;BME280;61575;49.908;35.556;2023-05-08T03:51:53;100226.97;;;6.64;43.36
73338;BME280;61575;49.908;35.556;2023-05-08T03:54:57;100238.97;;;6.70;43.46
73338;BME280;61575;49.908;35.556;2023-05-08T03:58:09;100237.81;;;6.84;43.66
73338;BME280;61575;49.908;35.556;2023-05-08T04:01:39;100234.63;;;6.90;43.17
73338;BME280;61575;49.908;35.556;2023-05-08T04:04:49;100237.63;;;6.96;43.37
73338;BME280;61575;49.908;35.556;2023-05-08T04:08:08;100245.13;;;7.02;42.90
73338;BME280;61575;49.908;35.556;2023-05-08T04:11:31;100239.53;;;7.06;43.46
73338;BME280;61575;49.908;35.556;2023-05-08T04:15:04;100224.75;;;7.22;42.73
73338;BME280;61575;49.908;35.556;2023-05-08T04:18:09;100232.41;;;7.27;42.58
73338;BME280;61575;49.908;35.556;2023-05-08T04:21:18;100239.44;;;7.28;42.40
73338;BME280;61575;49.908;35.556;2023-05-08T04:24:21;100241.06;;;7.40;42.29
73338;BME280;61575;49.908;35.556;2023-05-08T04:27:24;100239.19;;;7.61;42.53
73338;BME280;61575;49.908;35.556;2023-05-08T04:30:27;100236.69;;;7.70;42.26
73338;BME280;61575;49.908;35.556;2023-05-08T04:33:29;100240.06;;;8.02;41.53
73338;BME280;61575;49.908;35.556;2023-05-08T04:36:31;100237.03;;;8.26;41.18
73338;BME280;61575;49.908;35.556;2023-05-08T04:39:36;100232.97;;;8.41;40.66
73338;BME280;61575;49.908;35.556;2023-05-08T04:42:38;100246.94;;;8.54;40.61
73338;BME280;61575;49.908;35.556;2023-05-08T04:45:43;100240.03;;;8.61;40.38
73338;BME280;61575;49.908;35.556;2023-05-08T04:48:45;100233.41;;;8.56;40.05
73338;BME280;61575;49.908;35.556;2023-05-08T04:51:47;100234.56;;;8.63;39.52
73338;BME280;61575;49.908;35.556;2023-05-08T04:54:49;100239.22;;;8.90;39.17
73338;BME280;61575;49.908;35.556;2023-05-08T04:57:51;100246.81;;;9.23;39.30
73338;BME280;61575;49.908;35.556;2023-05-08T05:00:53;100245.84;;;9.24;38.73
73338;BME280;61575;49.908;35.556;2023-05-08T05:03:56;100245.81;;;9.05;38.89
73338;BME280;61575;49.908;35.556;2023-05-08T05:06:58;100249.91;;;8.90;39.26
73338;BME280;61575;49.908;35.556;2023-05-08T05:10:00;100256.53;;;8.76;39.39
73338;BME280;61575;49.908;35.556;2023-05-08T05:13:04;100252.16;;;8.75;39.30
73338;BME280;61575;49.908;35.556;2023-05-08T05:16:07;100251.88;;;8.69;39.37
73338;BME280;61575;49.908;35.556;2023-05-08T05:19:09;100254.72;;;8.86;39.65
73338;BME280;61575;49.908;35.556;2023-05-08T05:22:11;100262.03;;;8.94;39.45
73338;BME280;61575;49.908;35.556;2023-05-08T05:25:14;100254.84;;;8.94;39.36
73338;BME280;61575;49.908;35.556;2023-05-08T05:28:16;100261.06;;;9.05;39.35
73338;BME280;61575;49.908;35.556;2023-05-08T05:31:18;100259.66;;;9.20;39.32
73338;BME280;61575;49.908;35.556;2023-05-08T05:34:21;100258.25;;;9.16;38.91
73338;BME280;61575;49.908;35.556;2023-05-08T05:37:23;100257.81;;;9.20;38.27
73338;BME280;61575;49.908;35.556;2023-05-08T05:40:27;100262.06;;;9.23;38.57
73338;BME280;61575;49.908;35.556;2023-05-08T05:43:28;100256.06;;;9.48;39.25
73338;BME280;61575;49.908;35.556;2023-05-08T05:46:31;100254.88;;;9.60;38.70
73338;BME280;61575;49.908;35.556;2023-05-08T05:49:36;100260.16;;;9.89;38.26
73338;BME280;61575;49.908;35.556;2023-05-08T05:52:38;100253.59;;;10.02;38.14
73338;BME280;61575;49.908;35.556;2023-05-08T05:55:40;100253.00;;;10.08;37.34
73338;BME280;61575;49.908;35.556;2023-05-08T05:58:42;100254.66;;;10.18;37.26
73338;BME280;61575;49.908;35.556;2023-05-08T06:01:46;100251.41;;;10.15;37.48
73338;BME280;61575;49.908;35.556;2023-05-08T06:04:50;100252.22;;;10.25;36.76
73338;BME280;61575;49.908;35.556;2023-05-08T06:07:52;100249.09;;;10.30;36.69
73338;BME280;61575;49.908;35.556;2023-05-08T06:10:54;100257.91;;;10.40;37.58
73338;BME280;61575;49.908;35.556;2023-05-08T06:13:56;100258.56;;;10.24;35.94
73338;BME280;61575;49.908;35.556;2023-05-08T06:16:58;100258.44;;;10.25;36.36
73338;BME280;61575;49.908;35.556;2023-05-08T06:20:01;100252.56;;;10.40;36.24
73338;BME280;61575;49.908;35.556;2023-05-08T06:23:03;100254.09;;;10.42;35.79
73338;BME280;61575;49.908;35.556;2023-05-08T06:26:05;100252.66;;;10.66;35.38
73338;BME280;61575;49.908;35.556;2023-05-08T06:29:07;100246.25;;;10.94;35.19
73338;BME280;61575;49.908;35.556;2023-05-08T06:32:09;100254.31;;;11.38;35.19
73338;BME280;61575;49.908;35.556;2023-05-08T06:35:11;100258.72;;;11.65;34.68
73338;BME280;61575;49.908;35.556;2023-05-08T06:38:14;100252.94;;;11.85;33.47
73338;BME280;61575;49.908;35.556;2023-05-08T06:41:16;100261.50;;;12.07;33.95
73338;BME280;61575;49.908;35.556;2023-05-08T06:44:18;100262.03;;;12.10;33.55
73338;BME280;61575;49.908;35.556;2023-05-08T06:47:20;100260.69;;;12.14;33.44
73338;BME280;61575;49.908;35.556;2023-05-08T06:50:22;100257.88;;;12.24;33.69
73338;BME280;61575;49.908;35.556;2023-05-08T06:53:24;100255.78;;;12.52;34.25
73338;BME280;61575;49.908;35.556;2023-05-08T06:56:26;100256.19;;;12.90;33.98
73338;BME280;61575;49.908;35.556;2023-05-08T06:59:28;100263.59;;;12.96;32.91
73338;BME280;61575;49.908;35.556;2023-05-08T07:02:30;100265.63;;;13.10;33.09
73338;BME280;61575;49.908;35.556;2023-05-08T07:05:32;100272.03;;;13.09;32.65
73338;BME280;61575;49.908;35.556;2023-05-08T07:08:34;100264.66;;;13.35;32.44
73338;BME280;61575;49.908;35.556;2023-05-08T07:11:36;100266.31;;;13.53;32.36
73338;BME280;61575;49.908;35.556;2023-05-08T07:14:38;100264.41;;;13.77;32.46
73338;BME280;61575;49.908;35.556;2023-05-08T07:17:39;100271.31;;;13.80;31.69
73338;BME280;61575;49.908;35.556;2023-05-08T07:20:42;100265.97;;;13.56;31.19
73338;BME280;61575;49.908;35.556;2023-05-08T07:23:44;100270.66;;;13.70;31.35
73338;BME280;61575;49.908;35.556;2023-05-08T07:26:46;100265.94;;;13.72;30.43
73338;BME280;61575;49.908;35.556;2023-05-08T07:29:48;100266.94;;;13.79;30.58
73338;BME280;61575;49.908;35.556;2023-05-08T07:32:50;100267.63;;;13.81;30.52
73338;BME280;61575;49.908;35.556;2023-05-08T07:35:52;100283.47;;;13.76;29.77
73338;BME280;61575;49.908;35.556;2023-05-08T07:38:54;100272.34;;;13.71;30.47
73338;BME280;61575;49.908;35.556;2023-05-08T07:41:56;100281.41;;;13.94;31.14
73338;BME280;61575;49.908;35.556;2023-05-08T07:44:59;100300.19;;;13.71;30.30
73338;BME280;61575;49.908;35.556;2023-05-08T07:48:01;100287.53;;;13.15;29.79
73338;BME280;61575;49.908;35.556;2023-05-08T07:51:03;100298.84;;;13.19;30.68
73338;BME280;61575;49.908;35.556;2023-05-08T07:54:05;100286.88;;;13.13;30.83
73338;BME280;61575;49.908;35.556;2023-05-08T07:57:07;100286.03;;;13.12;30.77
73338;BME280;61575;49.908;35.556;2023-05-08T08:00:13;100279.16;;;13.34;31.63
73338;BME280;61575;49.908;35.556;2023-05-08T08:03:16;100271.00;;;13.67;31.17
73338;BME280;61575;49.908;35.556;2023-05-08T08:06:19;100278.19;;;13.99;31.44
73338;BME280;61575;49.908;35.556;2023-05-08T08:09:20;100269.13;;;14.31;30.90
73338;BME280;61575;49.908;35.556;2023-05-08T08:12:23;100278.34;;;14.44;30.01
73338;BME280;61575;49.908;35.556;2023-05-08T08:15:24;100276.38;;;14.69;30.52
73338;BME280;61575;49.908;35.556;2023-05-08T08:18:26;100272.63;;;14.48;29.21
73338;BME280;61575;49.908;35.556;2023-05-08T08:21:29;100268.78;;;14.65;29.71
73338;BME280;61575;49.908;35.556;2023-05-08T08:24:31;100266.72;;;14.98;29.35
73338;BME280;61575;49.908;35.556;2023-05-08T08:27:33;100271.09;;;14.99;29.67
73338;BME280;61575;49.908;35.556;2023-05-08T08:30:36;100268.69;;;15.27;29.35
73338;BME280;61575;49.908;35.556;2023-05-08T08:33:37;100261.22;;;15.29;28.23
73338;BME280;61575;49.908;35.556;2023-05-08T08:36:39;100262.50;;;15.18;28.78
73338;BME280;61575;49.908;35.556;2023-05-08T08:39:41;100250.59;;;15.04;27.92
73338;BME280;61575;49.908;35.556;2023-05-08T08:42:43;100264.41;;;15.32;29.16
73338;BME280;61575;49.908;35.556;2023-05-08T08:45:45;100268.28;;;15.53;28.24
73338;BME280;61575;49.908;35.556;2023-05-08T08:48:47;100257.47;;;15.53;28.24
73338;BME280;61575;49.908;35.556;2023-05-08T08:51:53;100257.38;;;15.23;28.00
73338;BME280;61575;49.908;35.556;2023-05-08T08:54:59;100258.56;;;15.43;27.91
73338;BME280;61575;49.908;35.556;2023-05-08T08:58:13;100261.38;;;15.50;28.35
73338;BME280;61575;49.908;35.556;2023-05-08T09:01:18;100259.88;;;15.48;27.43
73338;BME280;61575;49.908;35.556;2023-05-08T09:04:21;100254.75;;;15.15;27.62
73338;BME280;61575;49.908;35.556;2023-05-08T09:07:25;100246.41;;;15.39;28.39
73338;BME280;61575;49.908;35.556;2023-05-08T09:10:27;100249.59;;;15.43;27.79
73338;BME280;61575;49.908;35.556;2023-05-08T09:13:29;100256.28;;;15.55;28.08
73338;BME280;61575;49.908;35.556;2023-05-08T09:16:31;100254.53;;;15.77;28.34
73338;BME280;61575;49.908;35.556;2023-05-08T09:19:34;100249.31;;;15.90;27.77
73338;BME280;61575;49.908;35.556;2023-05-08T09:22:37;100260.88;;;15.84;27.90
73338;BME280;61575;49.908;35.556;2023-05-08T09:25:48;100246.41;;;15.92;27.68
73338;BME280;61575;49.908;35.556;2023-05-08T09:29:14;100238.75;;;15.95;27.69
73338;BME280;61575;49.908;35.556;2023-05-08T09:32:17;100246.50;;;15.98;27.30
73338;BME280;61575;49.908;35.556;2023-05-08T09:35:19;100238.19;;;15.85;27.20
73338;BME280;61575;49.908;35.556;2023-05-08T09:38:35;100239.88;;;16.01;27.49
73338;BME280;61575;49.908;35.556;2023-05-08T09:41:37;100236.03;;;16.10;27.43
73338;BME280;61575;49.908;35.556;2023-05-08T09:44:48;100234.19;;;15.96;27.19
73338;BME280;61575;49.908;35.556;2023-05-08T09:47:50;100232.41;;;15.88;27.38
73338;BME280;61575;49.908;35.556;2023-05-08T09:51:04;100235.84;;;15.97;27.26
73338;BME280;61575;49.908;35.556;2023-05-08T09:54:16;100223.91;;;15.91;27.56
73338;BME280;61575;49.908;35.556;2023-05-08T09:57:18;100226.50;;;15.99;27.06
73338;BME280;61575;49.908;35.556;2023-05-08T10:00:21;100226.78;;;15.75;27.42
73338;BME280;61575;49.908;35.556;2023-05-08T10:03:23;100230.16;;;15.62;27.81
73338;BME280;61575;49.908;35.556;2023-05-08T10:06:27;100230.53;;;15.89;27.93
73338;BME280;61575;49.908;35.556;2023-05-08T10:09:29;100225.84;;;16.12;27.83
73338;BME280;61575;49.908;35.556;2023-05-08T10:12:47;100210.03;;;16.30;27.35
73338;BME280;61575;49.908;35.556;2023-05-08T10:15:53;100212.81;;;16.37;27.34
73338;BME280;61575;49.908;35.556;2023-05-08T10:19:00;100213.16;;;16.49;26.68
73338;BME280;61575;49.908;35.556;2023-05-08T10:22:09;100209.53;;;16.56;26.94
73338;BME280;61575;49.908;35.556;2023-05-08T10:25:16;100204.75;;;16.44;26.86
73338;BME280;61575;49.908;35.556;2023-05-08T10:28:32;100202.69;;;16.60;27.04
73338;BME280;61575;49.908;35.556;2023-05-08T10:31:39;100204.09;;;16.56;26.83
73338;BME280;61575;49.908;35.556;2023-05-08T10:34:43;100194.09;;;16.57;26.52
73338;BME280;61575;49.908;35.556;2023-05-08T10:37:48;100202.13;;;16.50;26.53
73338;BME280;61575;49.908;35.556;2023-05-08T10:40:51;100202.69;;;16.46;26.17
73338;BME280;61575;49.908;35.556;2023-05-08T10:43:58;100204.19;;;16.63;26.19
73338;BME280;61575;49.908;35.556;2023-05-08T10:47:07;100202.91;;;16.80;26.27
73338;BME280;61575;49.908;35.556;2023-05-08T10:50:21;100202.50;;;16.83;26.91
73338;BME280;61575;49.908;35.556;2023-05-08T10:53:49;100189.88;;;16.54;25.69
73338;BME280;61575;49.908;35.556;2023-05-08T10:57:06;100196.22;;;16.61;26.44
73338;BME280;61575;49.908;35.556;2023-05-08T11:00:09;100196.25;;;16.47;26.25
73338;BME280;61575;49.908;35.556;2023-05-08T11:03:11;100202.53;;;16.32;26.61
73338;BME280;61575;49.908;35.556;2023-05-08T11:06:45;100199.03;;;16.53;26.74
73338;BME280;61575;49.908;35.556;2023-05-08T11:09:47;100197.84;;;16.56;27.21
73338;BME280;61575;49.908;35.556;2023-05-08T11:12:50;100185.47;;;16.53;26.70
73338;BME280;61575;49.908;35.556;2023-05-08T11:15:52;100190.03;;;16.31;27.01
73338;BME280;61575;49.908;35.556;2023-05-08T11:19:16;100193.03;;;16.22;26.28
73338;BME280;61575;49.908;35.556;2023-05-08T11:25:44;100192.50;;;16.12;27.78
73338;BME280;61575;49.908;35.556;2023-05-08T11:31:54;100184.00;;;16.15;26.72
73338;BME280;61575;49.908;35.556;2023-05-08T11:34:56;100182.84;;;16.24;27.01
73338;BME280;61575;49.908;35.556;2023-05-08T11:38:18;100181.13;;;16.01;27.80
73338;BME280;61575;49.908;35.556;2023-05-08T11:41:22;100185.13;;;16.05;27.26
73338;BME280;61575;49.908;35.556;2023-05-08T11:44:25;100175.59;;;16.10;27.31
73338;BME280;61575;49.908;35.556;2023-05-08T11:47:36;100171.19;;;16.09;27.18
73338;BME280;61575;49.908;35.556;2023-05-08T11:50:38;100173.41;;;16.20;27.50
73338;BME280;61575;49.908;35.556;2023-05-08T11:53:40;100172.53;;;16.34;27.42
73338;BME280;61575;49.908;35.556;2023-05-08T11:56:45;100176.81;;;16.43;27.38
73338;BME280;61575;49.908;35.556;2023-05-08T11:59:49;100173.50;;;16.62;27.19
73338;BME280;61575;49.908;35.556;2023-05-08T12:02:55;100170.16;;;16.60;26.82
73338;BME280;61575;49.908;35.556;2023-05-08T12:05:58;100173.72;;;16.46;27.64
73338;BME280;61575;49.908;35.556;2023-05-08T12:09:01;100175.56;;;16.60;27.43
73338;BME280;61575;49.908;35.556;2023-05-08T12:12:05;100167.69;;;16.65;27.68
73338;BME280;61575;49.908;35.556;2023-05-08T12:15:17;100165.78;;;16.45;27.07
73338;BME280;61575;49.908;35.556;2023-05-08T12:18:20;100157.97;;;16.35;27.21
73338;BME280;61575;49.908;35.556;2023-05-08T12:21:22;100158.22;;;16.04;26.83
73338;BME280;61575;49.908;35.556;2023-05-08T12:24:24;100161.09;;;16.17;27.02
73338;BME280;61575;49.908;35.556;2023-05-08T12:27:28;100156.63;;;16.10;26.56
73338;BME280;61575;49.908;35.556;2023-05-08T12:30:29;100155.13;;;16.07;26.67
73338;BME280;61575;49.908;35.556;2023-05-08T12:33:32;100158.88;;;16.06;26.17
73338;BME280;61575;49.908;35.556;2023-05-08T12:36:35;100147.16;;;16.20;26.73
73338;BME280;61575;49.908;35.556;2023-05-08T12:39:43;100139.06;;;16.42;26.71
73338;BME280;61575;49.908;35.556;2023-05-08T12:42:48;100143.31;;;16.51;26.58
73338;BME280;61575;49.908;35.556;2023-05-08T12:45:50;100143.22;;;16.59;26.41
73338;BME280;61575;49.908;35.556;2023-05-08T12:48:59;100137.97;;;16.79;25.52
73338;BME280;61575;49.908;35.556;2023-05-08T12:52:03;100133.81;;;17.04;25.26
73338;BME280;61575;49.908;35.556;2023-05-08T12:55:22;100135.88;;;17.02;25.83
73338;BME280;61575;49.908;35.556;2023-05-08T12:58:26;100132.34;;;17.01;25.73
73338;BME280;61575;49.908;35.556;2023-05-08T13:01:28;100124.69;;;17.12;25.59
73338;BME280;61575;49.908;35.556;2023-05-08T13:04:36;100128.34;;;17.25;25.24
73338;BME280;61575;49.908;35.556;2023-05-08T13:07:39;100142.84;;;17.39;25.30
73338;BME280;61575;49.908;35.556;2023-05-08T13:10:53;100131.34;;;17.37;25.05
73338;BME280;61575;49.908;35.556;2023-05-08T13:13:55;100141.91;;;17.25;25.55
73338;BME280;61575;49.908;35.556;2023-05-08T13:16:57;100146.69;;;17.23;24.96
73338;BME280;61575;49.908;35.556;2023-05-08T13:20:00;100132.69;;;17.20;25.20
73338;BME280;61575;49.908;35.556;2023-05-08T13:23:07;100141.47;;;16.73;25.25
73338;BME280;61575;49.908;35.556;2023-05-08T13:26:09;100148.94;;;16.13;25.35
73338;BME280;61575;49.908;35.556;2023-05-08T13:29:11;100150.84;;;16.34;25.54
73338;BME280;61575;49.908;35.556;2023-05-08T13:32:13;100154.13;;;16.29;25.65
73338;BME280;61575;49.908;35.556;2023-05-08T13:35:16;100154.16;;;16.51;25.39
73338;BME280;61575;49.908;35.556;2023-05-08T13:38:18;100156.31;;;16.19;25.37
73338;BME280;61575;49.908;35.556;2023-05-08T13:41:20;100159.34;;;15.95;25.60
73338;BME280;61575;49.908;35.556;2023-05-08T13:44:22;100152.25;;;15.94;25.72
73338;BME280;61575;49.908;35.556;2023-05-08T13:47:24;100156.25;;;16.13;26.05
73338;BME280;61575;49.908;35.556;2023-05-08T13:50:27;100157.28;;;16.12;25.93
73338;BME280;61575;49.908;35.556;2023-05-08T13:53:29;100166.44;;;15.96;26.00
73338;BME280;61575;49.908;35.556;2023-05-08T13:56:31;100161.88;;;15.82;26.48
73338;BME280;61575;49.908;35.556;2023-05-08T13:59:34;100173.53;;;15.38;26.54
73338;BME280;61575;49.908;35.556;2023-05-08T14:02:36;100164.38;;;15.39;26.41
73338;BME280;61575;49.908;35.556;2023-05-08T14:05:38;100156.25;;;15.24;26.09
73338;BME280;61575;49.908;35.556;2023-05-08T14:08:40;100156.97;;;15.18;26.58
73338;BME280;61575;49.908;35.556;2023-05-08T14:11:49;100166.00;;;15.10;27.11
73338;BME280;61575;49.908;35.556;2023-05-08T14:14:51;100156.06;;;14.88;27.34
73338;BME280;61575;49.908;35.556;2023-05-08T14:17:53;100169.00;;;14.78;27.58
73338;BME280;61575;49.908;35.556;2023-05-08T14:20:54;100172.47;;;14.87;26.96
73338;BME280;61575;49.908;35.556;2023-05-08T14:23:58;100166.28;;;14.78;26.94
73338;BME280;61575;49.908;35.556;2023-05-08T14:27:00;100167.25;;;14.62;27.35
73338;BME280;61575;49.908;35.556;2023-05-08T14:30:06;100164.72;;;14.38;27.74
73338;BME280;61575;49.908;35.556;2023-05-08T14:33:08;100174.22;;;14.03;27.79
73338;BME280;61575;49.908;35.556;2023-05-08T14:36:10;100169.19;;;13.92;28.25
73338;BME280;61575;49.908;35.556;2023-05-08T14:39:12;100177.84;;;13.79;28.28
73338;BME280;61575;49.908;35.556;2023-05-08T14:42:14;100181.09;;;13.66;28.46
73338;BME280;61575;49.908;35.556;2023-05-08T14:45:23;100177.97;;;13.46;29.03
73338;BME280;61575;49.908;35.556;2023-05-08T14:48:25;100172.56;;;13.46;29.22
73338;BME280;61575;49.908;35.556;2023-05-08T14:51:28;100185.75;;;13.33;29.33
73338;BME280;61575;49.908;35.556;2023-05-08T14:54:30;100187.06;;;13.29;29.22
73338;BME280;61575;49.908;35.556;2023-05-08T14:57:32;100189.09;;;13.19;29.52
73338;BME280;61575;49.908;35.556;2023-05-08T15:00:34;100172.06;;;13.19;29.63
73338;BME280;61575;49.908;35.556;2023-05-08T15:03:36;100190.63;;;13.13;29.90
73338;BME280;61575;49.908;35.556;2023-05-08T15:06:38;100188.25;;;13.10;30.04
73338;BME280;61575;49.908;35.556;2023-05-08T15:09:40;100185.56;;;13.02;30.04
73338;BME280;61575;49.908;35.556;2023-05-08T15:12:42;100185.06;;;12.91;30.23
73338;BME280;61575;49.908;35.556;2023-05-08T15:15:44;100185.75;;;12.93;30.15
73338;BME280;61575;49.908;35.556;2023-05-08T15:18:47;100191.66;;;12.80;30.28
73338;BME280;61575;49.908;35.556;2023-05-08T15:21:48;100196.19;;;12.71;30.30
73338;BME280;61575;49.908;35.556;2023-05-08T15:24:50;100187.59;;;12.68;30.28
73338;BME280;61575;49.908;35.556;2023-05-08T15:27:52;100189.94;;;12.55;30.41
73338;BME280;61575;49.908;35.556;2023-05-08T15:30:54;100185.88;;;12.50;30.30
73338;BME280;61575;49.908;35.556;2023-05-08T15:33:56;100188.91;;;12.47;30.33
73338;BME280;61575;49.908;35.556;2023-05-08T15:36:58;100185.19;;;12.40;30.62
73338;BME280;61575;49.908;35.556;2023-05-08T15:40:00;100182.00;;;12.37;30.48
73338;BME280;61575;49.908;35.556;2023-05-08T15:43:02;100185.66;;;12.28;30.88
73338;BME280;61575;49.908;35.556;2023-05-08T15:46:04;100191.91;;;12.28;30.72
73338;BME280;61575;49.908;35.556;2023-05-08T15:49:06;100192.56;;;12.22;31.01
73338;BME280;61575;49.908;35.556;2023-05-08T15:52:08;100191.38;;;12.25;31.00
73338;BME280;61575;49.908;35.556;2023-05-08T15:55:10;100197.09;;;12.22;31.21
73338;BME280;61575;49.908;35.556;2023-05-08T15:58:12;100191.34;;;12.16;31.13
73338;BME280;61575;49.908;35.556;2023-05-08T16:01:14;100192.69;;;12.12;31.30
73338;BME280;61575;49.908;35.556;2023-05-08T16:04:16;100196.72;;;12.08;31.09
73338;BME280;61575;49.908;35.556;2023-05-08T16:07:18;100191.44;;;11.99;31.09
73338;BME280;61575;49.908;35.556;2023-05-08T16:10:20;100193.59;;;11.95;31.68
73338;BME280;61575;49.908;35.556;2023-05-08T16:13:22;100192.09;;;11.93;31.58
73338;BME280;61575;49.908;35.556;2023-05-08T16:16:25;100190.88;;;11.87;31.60
73338;BME280;61575;49.908;35.556;2023-05-08T16:19:27;100191.22;;;11.84;31.63
73338;BME280;61575;49.908;35.556;2023-05-08T16:22:29;100202.28;;;11.81;31.69
73338;BME280;61575;49.908;35.556;2023-05-08T16:25:31;100205.63;;;11.75;31.67
73338;BME280;61575;49.908;35.556;2023-05-08T16:28:33;100202.75;;;11.68;31.78